Time;durP1;ratioP1;P1;durP2;ratioP2;P2;SDS_P1;SDS_P2;PMS_P1;PMS_P2;Temp;Humidity;BMP_temperature;BMP_pressure;BME280_temperature;BME280_humidity;BME280_pressure;Samples;Min_cycle;Max_cycle;Signal;HPM_P1;HPM_P2
2022/08/20 07:33:29;;;;;;;30.30;18.77;;;21.20;1.00;;;;;;5085492;28;20589;-84
2022/08/20 07:35:57;;;;;;;33.17;16.90;;;21.10;99.90;;;;;;5083595;28;20491;-84
2022/08/20 07:38:24;;;;;;;29.17;15.10;;;21.00;99.90;;;;;;5069747;28;20936;-84
2022/08/20 07:40:56;;;;;;;31.30;19.67;;;20.90;99.90;;;;;;5069947;28;21006;-84
2022/08/20 07:43:22;;;;;;;30.57;18.60;;;20.90;99.90;;;;;;5071245;28;20826;-84
2022/08/20 07:45:55;;;;;;;23.97;16.97;;;20.90;1.00;;;;;;5070097;28;20463;-84
2022/08/20 07:48:23;;;;;;;30.90;18.63;;;21.00;99.90;;;;;;5069939;28;20494;-84
2022/08/20 07:50:48;;;;;;;26.43;16.33;;;21.10;99.90;;;;;;5086668;28;20472;-84
2022/08/20 07:53:15;;;;;;;30.43;16.83;;;21.20;99.90;;;;;;5067258;28;20439;-84
2022/08/20 07:55:41;;;;;;;25.63;16.37;;;21.30;1.00;;;;;;5070384;28;20603;-84
2022/08/20 07:58:14;;;;;;;29.13;16.10;;;21.40;1.00;;;;;;5066859;28;20437;-84
2022/08/20 08:00:40;;;;;;;31.57;16.57;;;21.60;84.80;;;;;;5064410;28;20210;-84
2022/08/20 08:03:06;;;;;;;36.87;18.10;;;21.60;99.90;;;;;;5068960;28;20821;-84
2022/08/20 08:05:34;;;;;;;32.13;19.03;;;21.50;99.90;;;;;;5067542;28;20440;-84
2022/08/20 08:08:01;;;;;;;37.63;19.70;;;21.40;71.50;;;;;;5068246;28;20190;-84
2022/08/20 08:10:27;;;;;;;43.70;18.83;;;21.40;99.90;;;;;;5068420;28;20494;-84
2022/08/20 08:12:59;;;;;;;32.60;18.10;;;21.40;99.90;;;;;;5070176;28;20526;-84
2022/08/20 08:15:30;;;;;;;24.13;17.23;;;21.40;99.90;;;;;;5067653;28;20440;-84
2022/08/20 08:18:00;;;;;;;31.00;17.90;;;21.50;99.90;;;;;;5067067;28;20738;-84
2022/08/20 08:20:26;;;;;;;32.70;16.83;;;21.50;99.90;;;;;;5068023;28;20495;-84
2022/08/20 08:22:52;;;;;;;26.97;16.20;;;21.60;9.80;;;;;;5067019;28;20472;-83
2022/08/20 08:25:18;;;;;;;26.17;16.70;;;21.60;1.00;;;;;;5066368;28;20228;-83
2022/08/20 08:27:46;;;;;;;31.17;18.17;;;21.50;1.00;;;;;;5070172;28;20452;-84
2022/08/20 08:30:12;;;;;;;31.53;16.97;;;21.50;1.00;;;;;;5071543;28;20193;-84
2022/08/20 08:33:26;;;;;;;30.00;17.53;;;21.50;1.00;;;;;;5068908;28;20439;-83
2022/08/20 08:35:24;;;;;;;32.33;18.53;;;21.60;1.00;;;;;;5068084;28;20447;-84
2022/08/20 08:37:50;;;;;;;27.50;17.40;;;21.60;1.00;;;;;;5068320;28;20513;-84
2022/08/20 08:40:15;;;;;;;27.30;16.57;;;21.80;99.90;;;;;;5065416;28;20508;-84
2022/08/20 08:42:54;;;;;;;24.50;14.27;;;22.00;22.70;;;;;;5056012;28;20201;-84
2022/08/20 08:45:20;;;;;;;26.47;16.67;;;22.30;1.00;;;;;;5054903;28;20191;-85
2022/08/20 08:47:46;;;;;;;23.30;15.00;;;22.80;1.00;;;;;;5055778;28;20863;-85
2022/08/20 08:50:24;;;;;;;21.90;14.50;;;23.20;99.90;;;;;;5056764;28;20432;-84
2022/08/20 08:52:53;;;;;;;18.07;13.50;;;23.40;1.00;;;;;;5057031;28;20529;-84
2022/08/20 08:55:20;;;;;;;24.80;14.30;;;23.40;1.00;;;;;;5053728;28;20870;-84
2022/08/20 08:57:48;;;;;;;22.50;14.20;;;23.50;1.00;;;;;;5053822;28;20999;-83
2022/08/20 09:00:17;;;;;;;25.93;14.80;;;23.50;1.00;;;;;;5057656;28;20982;-84
2022/08/20 09:03:08;;;;;;;30.30;16.17;;;23.60;99.90;;;;;;5074096;28;20436;-83
2022/08/20 09:05:47;;;;;;;37.20;16.87;;;23.60;99.90;;;;;;5056968;28;20454;-84
2022/08/20 09:08:17;;;;;;;26.20;17.10;;;23.50;99.90;;;;;;5055733;28;20985;-84
2022/08/20 09:12:11;;;;;;;31.47;17.50;;;23.20;99.90;;;;;;5056957;28;20610;-86
2022/08/20 09:14:36;;;;;;;24.23;14.80;;;23.10;99.90;;;;;;5049581;28;20443;-84
2022/08/20 09:17:03;;;;;;;22.27;15.07;;;23.30;99.90;;;;;;5051692;28;20453;-86
2022/08/20 09:19:29;;;;;;;28.20;16.73;;;23.80;99.90;;;;;;5043168;28;20548;-84
2022/08/20 09:21:55;;;;;;;23.73;16.43;;;24.10;99.90;;;;;;5045579;28;20468;-87
2022/08/20 09:24:20;;;;;;;28.40;17.50;;;24.10;99.90;;;;;;5043567;28;20997;-86
2022/08/20 09:26:46;;;;;;;30.73;17.23;;;23.90;99.90;;;;;;5044791;28;20228;-85
2022/08/20 09:29:12;;;;;;;30.83;17.60;;;23.60;99.90;;;;;;5042893;28;20268;-84
2022/08/20 09:31:38;;;;;;;29.43;17.90;;;23.50;99.90;;;;;;5044571;28;20207;-85
2022/08/20 09:34:03;;;;;;;27.33;17.50;;;24.00;99.90;;;;;;5043319;28;20242;-85
2022/08/20 09:36:29;;;;;;;26.67;16.47;;;24.40;99.90;;;;;;5044527;28;20439;-86
2022/08/20 09:38:55;;;;;;;25.53;16.50;;;24.80;8.80;;;;;;5036671;28;20247;-85
2022/08/20 09:41:20;;;;;;;24.00;16.43;;;25.00;1.00;;;;;;5043107;28;20657;-85
2022/08/20 09:43:46;;;;;;;26.77;15.53;;;25.20;1.00;;;;;;5033986;28;20659;-86
2022/08/20 09:46:11;;;;;;;24.97;15.73;;;25.30;1.00;;;;;;5034318;28;20648;-85
2022/08/20 10:01:48;;;;;;;22.37;15.87;;;24.90;1.00;;;;;;5023531;28;20515;-86
2022/08/20 10:04:13;;;;;;;28.43;18.23;;;25.30;1.00;;;;;;4998733;28;20869;-86
2022/08/20 10:06:40;;;;;;;21.17;15.80;;;25.80;1.00;;;;;;5021436;28;20474;-85
2022/08/20 10:09:05;;;;;;;28.20;16.83;;;26.40;1.00;;;;;;5010387;28;20713;-86
2022/08/20 10:11:31;;;;;;;22.93;16.80;;;26.90;99.90;;;;;;4992432;28;20442;-85
2022/08/20 10:13:57;;;;;;;22.53;16.13;;;27.30;99.90;;;;;;4995766;28;20274;-85
2022/08/20 10:16:28;;;;;;;26.03;17.17;;;27.70;99.90;;;;;;4994412;28;20231;-85
2022/08/20 10:18:54;;;;;;;19.23;14.07;;;27.90;99.90;;;;;;5018302;28;20179;-85
2022/08/20 10:21:19;;;;;;;28.80;16.33;;;28.10;99.90;;;;;;5020978;28;20992;-85
2022/08/20 10:23:45;;;;;;;24.07;15.30;;;28.40;99.90;;;;;;4991579;28;20179;-86
2022/08/20 10:26:12;;;;;;;23.23;17.03;;;28.70;99.90;;;;;;5003432;28;20203;-85
2022/08/20 10:28:38;;;;;;;28.30;16.83;;;28.90;99.90;;;;;;4993660;28;20194;-86
2022/08/20 10:31:08;;;;;;;25.70;18.73;;;29.10;99.90;;;;;;4996268;28;20430;-85
2022/08/20 10:33:35;;;;;;;27.93;17.67;;;29.00;99.90;;;;;;5000133;28;20422;-85
2022/08/20 10:36:08;;;;;;;24.87;16.60;;;28.90;99.90;;;;;;4985853;28;20443;-87
2022/08/20 10:38:33;;;;;;;24.37;18.37;;;28.90;99.90;;;;;;5005626;28;20425;-85
2022/08/20 10:40:59;;;;;;;23.73;16.60;;;29.00;99.90;;;;;;4985737;28;20458;-85
2022/08/20 10:43:24;;;;;;;27.40;18.23;;;29.70;99.90;;;;;;5007846;28;20258;-85
2022/08/20 10:45:51;;;;;;;23.80;16.17;;;29.50;99.90;;;;;;5006284;28;20594;-85
2022/08/20 10:48:16;;;;;;;23.63;16.60;;;29.30;99.90;;;;;;4991723;28;20187;-86
2022/08/20 10:50:42;;;;;;;24.63;17.90;;;28.80;99.90;;;;;;4993737;28;20439;-85
2022/08/20 10:53:08;;;;;;;26.40;18.60;;;28.30;99.90;;;;;;4988214;28;20203;-85
2022/08/20 10:55:33;;;;;;;23.07;17.13;;;27.90;99.90;;;;;;4987383;28;20544;-85
2022/08/20 10:57:59;;;;;;;27.67;17.93;;;27.70;99.90;;;;;;4984609;28;20203;-85
2022/08/20 11:00:27;;;;;;;32.67;19.57;;;27.60;99.90;;;;;;4986662;28;20233;-85
2022/08/20 11:02:55;;;;;;;23.13;16.37;;;28.30;99.90;;;;;;5002172;28;20591;-85
2022/08/20 11:05:21;;;;;;;22.40;16.17;;;28.70;99.90;;;;;;5003948;28;20427;-85
2022/08/20 11:07:46;;;;;;;21.10;15.10;;;30.40;99.90;;;;;;4999870;28;20493;-86
2022/08/20 11:10:12;;;;;;;24.57;16.10;;;32.10;99.90;;;;;;4990881;28;20190;-86
2022/08/20 11:12:38;;;;;;;19.70;13.50;;;32.40;99.90;;;;;;4991651;28;20208;-84
2022/08/20 11:15:10;;;;;;;16.27;13.37;;;33.70;99.90;;;;;;4999182;28;20426;-84
2022/08/20 11:17:39;;;;;;;16.33;13.07;;;35.00;99.90;;;;;;4984370;28;20306;-84
2022/08/20 11:20:07;;;;;;;18.97;12.90;;;35.30;99.90;;;;;;4993579;28;20466;-84
2022/08/20 11:22:33;;;;;;;18.80;13.40;;;34.30;99.90;;;;;;5008889;28;20417;-83
2022/08/20 11:24:59;;;;;;;16.00;11.60;;;33.60;99.90;;;;;;4974654;28;20918;-83
2022/08/20 11:27:32;;;;;;;20.23;13.00;;;32.60;99.90;;;;;;4995720;28;20465;-83
2022/08/20 11:29:57;;;;;;;17.10;11.63;;;31.70;99.90;;;;;;4989605;28;20184;-83
2022/08/20 11:32:23;;;;;;;13.77;10.87;;;31.70;99.90;;;;;;4982103;28;20432;-83
2022/08/20 11:34:50;;;;;;;16.90;10.93;;;32.90;99.90;;;;;;4983078;28;20194;-84
2022/08/20 11:37:18;;;;;;;19.90;8.90;;;33.60;99.90;;;;;;4980849;28;20216;-84
2022/08/20 11:39:44;;;;;;;15.17;9.20;;;34.70;99.90;;;;;;4990366;28;20990;-85
2022/08/20 11:42:09;;;;;;;17.90;10.27;;;35.20;99.90;;;;;;5003947;28;20502;-84
2022/08/20 11:44:35;;;;;;;16.27;8.70;;;35.90;99.90;;;;;;5006497;28;20214;-84
2022/08/20 11:47:03;;;;;;;17.20;10.57;;;36.50;99.90;;;;;;4999003;28;20553;-83
2022/08/20 11:49:34;;;;;;;13.83;9.40;;;35.80;99.90;;;;;;4984690;28;20218;-84
2022/08/20 11:52:00;;;;;;;14.77;9.30;;;34.90;99.90;;;;;;4992118;28;20422;-83
2022/08/20 11:54:30;;;;;;;13.33;9.33;;;34.30;99.90;;;;;;4990594;28;20434;-83
2022/08/20 11:56:56;;;;;;;14.50;9.07;;;33.20;97.60;;;;;;4998730;28;20517;-83
2022/08/20 11:59:26;;;;;;;11.03;9.20;;;32.10;95.90;;;;;;4983028;28;20460;-83
2022/08/20 12:01:53;;;;;;;15.30;8.50;;;32.90;98.70;;;;;;4987221;28;20970;-83
2022/08/20 12:04:18;;;;;;;14.60;8.03;;;33.40;99.50;;;;;;4993519;28;20430;-83
2022/08/20 12:06:44;;;;;;;17.13;7.80;;;33.00;96.50;;;;;;5011376;28;20447;-83
2022/08/20 12:09:10;;;;;;;13.37;8.67;;;33.10;96.10;;;;;;4982107;28;20218;-83
2022/08/20 12:11:35;;;;;;;10.27;7.60;;;32.60;94.70;;;;;;4999105;28;20187;-83
2022/08/20 12:14:01;;;;;;;13.80;8.23;;;32.10;93.40;;;;;;4986618;28;20209;-83
2022/08/20 12:16:26;;;;;;;14.37;8.43;;;32.30;94.60;;;;;;4988149;28;20687;-84
2022/08/20 12:18:52;;;;;;;11.93;7.30;;;33.30;96.20;;;;;;4983061;28;20323;-83
2022/08/20 12:21:18;;;;;;;11.50;7.10;;;34.00;96.60;;;;;;5005845;28;20687;-83
2022/08/20 12:23:43;;;;;;;13.60;7.00;;;34.60;96.10;;;;;;4985452;28;20182;-84
2022/08/20 12:26:09;;;;;;;14.83;7.00;;;34.80;95.50;;;;;;4988029;28;20211;-84
2022/08/20 12:28:35;;;;;;;11.93;6.90;;;34.60;94.00;;;;;;4985759;28;20199;-84
2022/08/20 12:31:00;;;;;;;16.17;6.50;;;35.10;94.20;;;;;;4982609;28;20187;-84
2022/08/20 12:33:26;;;;;;;7.87;5.60;;;35.60;93.40;;;;;;4990033;28;20193;-84
2022/08/20 12:35:52;;;;;;;8.40;5.17;;;35.40;91.70;;;;;;5011853;28;20230;-83
2022/08/20 12:38:17;;;;;;;8.37;4.70;;;35.60;89.20;;;;;;4987541;28;20202;-83
2022/08/20 12:40:43;;;;;;;11.33;3.90;;;35.70;85.80;;;;;;4983514;28;20221;-83
2022/08/20 12:43:09;;;;;;;7.73;4.07;;;35.50;80.20;;;;;;4981643;28;20230;-84
2022/08/20 12:45:35;;;;;;;11.33;3.93;;;35.50;78.80;;;;;;4980372;28;20198;-83
2022/08/20 12:48:07;;;;;;;9.53;4.33;;;35.50;75.80;;;;;;4983606;28;20210;-83
2022/08/20 12:50:39;;;;;;;9.43;4.10;;;35.00;70.00;;;;;;4999743;28;20919;-84
2022/08/20 12:53:05;;;;;;;10.20;3.70;;;34.80;67.90;;;;;;4988049;28;20473;-84
2022/08/20 12:55:31;;;;;;;9.77;4.07;;;34.80;66.60;;;;;;5006613;28;20450;-85
2022/08/20 12:57:59;;;;;;;9.43;3.37;;;34.90;65.60;;;;;;4990453;28;20954;-85
2022/08/20 13:00:35;;;;;;;9.30;3.73;;;34.90;63.90;;;;;;4998461;28;20454;-83
2022/08/20 13:03:03;;;;;;;10.10;3.50;;;34.90;62.00;;;;;;4999024;23;20533;-85
2022/08/20 13:05:30;;;;;;;6.97;2.50;;;34.90;60.90;;;;;;4992086;28;20510;-85
2022/08/20 13:07:56;;;;;;;5.03;2.90;;;34.80;58.00;;;;;;4987446;28;20415;-86
2022/08/20 13:10:28;;;;;;;8.50;2.90;;;34.60;55.90;;;;;;4961273;28;20444;-85
2022/08/20 13:12:54;;;;;;;9.93;3.00;;;34.60;54.40;;;;;;4971806;28;20458;-85
2022/08/20 13:15:20;;;;;;;10.63;2.70;;;34.40;52.20;;;;;;4975153;28;20437;-86
2022/08/20 13:17:57;;;;;;;6.13;2.40;;;34.30;49.90;;;;;;4991691;28;20422;-85
2022/08/20 13:20:25;;;;;;;6.40;2.83;;;34.00;40.10;;;;;;4974725;28;20469;-85
2022/08/20 13:22:52;;;;;;;11.07;3.20;;;33.80;34.70;;;;;;4959218;28;20539;-86
2022/08/20 13:25:17;;;;;;;5.40;2.80;;;33.70;33.20;;;;;;4956089;28;20431;-85
2022/08/20 13:27:44;;;;;;;6.90;2.60;;;33.60;32.30;;;;;;4972681;28;20422;-85
2022/08/20 13:30:16;;;;;;;6.83;2.80;;;33.70;30.90;;;;;;4981165;28;20190;-85
2022/08/20 13:32:42;;;;;;;6.93;3.03;;;33.70;29.10;;;;;;4995969;28;20463;-85
2022/08/20 13:35:10;;;;;;;8.43;3.20;;;33.60;28.20;;;;;;4992742;28;20419;-85
2022/08/20 13:37:37;;;;;;;6.60;3.73;;;33.50;27.70;;;;;;4991965;28;20557;-85
2022/08/20 13:40:04;;;;;;;6.43;3.13;;;33.30;27.00;;;;;;4986077;28;20481;-85
2022/08/20 13:42:30;;;;;;;6.23;3.23;;;33.30;26.40;;;;;;4976258;28;20443;-85
2022/08/20 13:44:55;;;;;;;6.30;3.83;;;33.20;26.10;;;;;;4984204;28;20565;-85
2022/08/20 13:47:28;;;;;;;8.73;3.37;;;33.10;26.20;;;;;;4974598;28;20180;-85
2022/08/20 13:50:00;;;;;;;12.73;3.47;;;33.10;26.90;;;;;;4993000;28;20282;-85
2022/08/20 13:52:26;;;;;;;13.63;3.60;;;33.00;26.50;;;;;;4991771;28;20451;-85
2022/08/20 13:54:52;;;;;;;4.93;3.07;;;32.80;25.40;;;;;;4982602;28;20781;-85
2022/08/20 13:57:20;;;;;;;7.60;3.80;;;32.90;24.50;;;;;;4976816;28;20418;-85
2022/08/20 13:59:52;;;;;;;7.17;3.80;;;32.90;25.20;;;;;;4991353;28;20469;-86
2022/08/20 14:02:18;;;;;;;6.63;3.30;;;32.90;24.90;;;;;;4979763;28;20473;-85
2022/08/20 14:04:45;;;;;;;7.60;3.90;;;32.80;24.40;;;;;;4991986;28;20935;-85
2022/08/20 14:07:12;;;;;;;7.00;3.97;;;32.80;24.20;;;;;;4986188;28;20510;-85
2022/08/20 14:09:39;;;;;;;13.63;4.57;;;32.70;25.00;;;;;;4982467;28;20465;-85
2022/08/20 14:12:06;;;;;;;6.53;3.53;;;32.70;25.20;;;;;;4986617;28;20478;-86
2022/08/20 14:14:32;;;;;;;7.60;4.43;;;32.70;24.60;;;;;;4972097;28;20474;-85
2022/08/20 14:16:57;;;;;;;9.63;4.23;;;32.80;24.90;;;;;;4972060;28;20883;-85
2022/08/20 14:19:23;;;;;;;7.50;4.13;;;32.60;24.40;;;;;;4991433;28;20184;-86
2022/08/20 14:21:48;;;;;;;5.97;3.23;;;32.50;23.50;;;;;;4988638;28;20565;-85
2022/08/20 14:24:14;;;;;;;8.10;4.10;;;32.50;22.90;;;;;;4990306;28;20184;-86
2022/08/20 14:26:39;;;;;;;6.40;3.50;;;32.30;22.70;;;;;;4977076;28;20192;-86
2022/08/20 14:29:05;;;;;;;5.53;3.70;;;32.30;22.10;;;;;;4993966;28;20668;-86
2022/08/20 14:31:31;;;;;;;6.00;3.53;;;32.30;22.00;;;;;;4995923;28;20273;-85
2022/08/20 14:33:56;;;;;;;4.43;3.20;;;31.90;21.40;;;;;;4995866;28;20203;-86
2022/08/20 14:36:22;;;;;;;7.67;3.80;;;31.60;20.40;;;;;;4995412;28;20183;-85
2022/08/20 14:38:47;;;;;;;6.97;4.67;;;31.20;28.90;;;;;;4978185;28;20207;-85
2022/08/20 14:41:13;;;;;;;6.97;4.20;;;31.10;19.50;;;;;;4995930;28;20226;-86
2022/08/20 14:43:38;;;;;;;9.03;5.23;;;30.80;18.60;;;;;;4987332;28;20298;-86
2022/08/20 14:46:04;;;;;;;6.47;4.33;;;30.50;28.00;;;;;;4991801;28;20262;-85
2022/08/20 14:48:29;;;;;;;10.13;5.37;;;30.30;17.90;;;;;;4997381;28;20195;-85
2022/08/20 14:50:55;;;;;;;6.67;5.30;;;30.10;18.20;;;;;;4991605;28;20185;-85
2022/08/20 14:53:21;;;;;;;6.90;4.37;;;30.00;17.60;;;;;;4980261;28;20203;-86
2022/08/20 14:55:47;;;;;;;8.07;4.30;;;29.80;17.90;;;;;;4995065;28;20191;-86
2022/08/20 14:58:14;;;;;;;7.23;4.93;;;29.70;17.80;;;;;;4989917;28;20267;-86
2022/08/20 15:00:41;;;;;;;7.60;5.20;;;29.60;18.10;;;;;;4984106;28;20525;-86
2022/08/20 15:03:06;;;;;;;9.90;6.07;;;29.50;19.10;;;;;;4989129;28;20980;-86
2022/08/20 15:05:33;;;;;;;9.20;5.30;;;29.60;19.80;;;;;;4959423;28;20431;-86
2022/08/20 15:07:58;;;;;;;8.50;5.53;;;29.60;19.70;;;;;;4966602;28;20184;-86
2022/08/20 15:10:28;;;;;;;8.53;5.10;;;29.50;20.00;;;;;;4970966;28;20452;-86
2022/08/20 15:12:54;;;;;;;9.93;6.10;;;29.40;19.80;;;;;;4991300;28;20207;-86
2022/08/20 15:15:20;;;;;;;12.00;5.57;;;29.40;20.70;;;;;;4994596;28;20422;-86
2022/08/20 15:17:49;;;;;;;7.07;5.40;;;29.40;20.80;;;;;;4987520;28;20454;-86
2022/08/20 15:20:17;;;;;;;8.17;5.00;;;29.50;21.60;;;;;;4974856;28;20473;-86
2022/08/20 15:22:43;;;;;;;9.47;5.30;;;29.50;22.10;;;;;;4986297;28;20442;-86
2022/08/20 15:25:13;;;;;;;8.90;5.70;;;29.50;23.30;;;;;;4982931;28;20773;-87
2022/08/20 15:27:39;;;;;;;10.87;6.73;;;29.60;24.20;;;;;;4971122;28;20427;-86
2022/08/20 15:30:11;;;;;;;6.80;5.00;;;29.50;24.00;;;;;;4993088;28;20430;-86
2022/08/20 15:32:37;;;;;;;9.30;6.37;;;29.50;24.70;;;;;;4993969;28;20461;-86
2022/08/20 15:35:03;;;;;;;8.13;6.50;;;29.30;25.00;;;;;;4982228;28;20432;-85
2022/08/20 15:37:29;;;;;;;11.13;5.93;;;29.30;25.10;;;;;;4990787;28;20419;-85
2022/08/20 15:39:55;;;;;;;10.63;5.60;;;29.30;25.80;;;;;;4983244;28;20422;-85
2022/08/20 15:42:22;;;;;;;10.80;5.80;;;29.40;25.60;;;;;;4990343;28;20232;-86
2022/08/20 15:44:48;;;;;;;11.83;5.80;;;29.40;26.50;;;;;;4985978;28;20419;-86
2022/08/20 15:47:27;;;;;;;10.50;5.33;;;29.50;27.60;;;;;;4994173;28;20450;-86
2022/08/20 15:50:07;;;;;;;11.00;5.60;;;29.50;27.40;;;;;;4972436;28;20192;-86
2022/08/20 15:52:37;;;;;;;15.13;5.30;;;29.50;28.00;;;;;;4962359;28;20457;-85
2022/08/20 15:55:04;;;;;;;11.60;5.50;;;29.60;28.50;;;;;;4975439;28;21070;-86
2022/08/20 15:57:35;;;;;;;6.20;4.13;;;29.60;29.00;;;;;;4974822;28;20435;-86
2022/08/20 16:00:13;;;;;;;11.53;5.57;;;29.60;28.90;;;;;;4987219;28;20411;-85
2022/08/20 16:03:04;;;;;;;8.47;5.00;;;29.40;29.50;;;;;;4977223;28;20989;-86
2022/08/20 16:05:56;;;;;;;7.70;4.90;;;29.30;29.10;;;;;;4970132;28;20432;-85
2022/08/20 16:08:40;;;;;;;8.03;4.70;;;29.00;28.80;;;;;;4984531;28;20427;-85
2022/08/20 16:11:14;;;;;;;11.33;4.80;;;28.80;29.20;;;;;;4994341;28;20430;-85
2022/08/20 16:13:56;;;;;;;9.10;4.90;;;28.70;29.90;;;;;;4995373;28;20977;-84
2022/08/20 16:16:47;;;;;;;7.80;4.60;;;28.40;29.60;;;;;;4993065;28;20419;-85
2022/08/20 16:19:25;;;;;;;12.70;5.77;;;28.20;29.70;;;;;;4990839;28;20441;-85
2022/08/20 16:21:52;;;;;;;9.40;5.23;;;28.00;29.30;;;;;;4978776;28;20462;-85
2022/08/20 16:24:19;;;;;;;9.60;4.93;;;27.80;30.00;;;;;;4978044;28;20431;-86
2022/08/20 16:27:00;;;;;;;6.17;4.63;;;27.70;31.10;;;;;;4996705;28;20438;-85
2022/08/20 16:29:44;;;;;;;8.00;4.90;;;27.60;31.50;;;;;;4985537;28;20431;-86
2022/08/20 16:32:28;;;;;;;10.93;5.33;;;27.70;32.50;;;;;;4979434;28;20444;-85
2022/08/20 16:35:02;;;;;;;5.97;5.30;;;27.60;33.30;;;;;;4985361;28;20790;-85
2022/08/20 16:37:42;;;;;;;13.13;7.17;;;27.60;33.20;;;;;;4974330;28;20839;-85
2022/08/20 16:40:39;;;;;;;7.70;5.83;;;27.60;33.80;;;;;;4972307;28;20931;-85
2022/08/20 16:43:08;;;;;;;6.57;4.60;;;27.60;36.00;;;;;;4987755;28;20458;-85
2022/08/20 16:45:50;;;;;;;9.80;5.50;;;27.50;36.00;;;;;;4963116;28;20435;-85
2022/08/20 16:48:17;;;;;;;8.80;6.20;;;27.60;37.40;;;;;;4971331;28;20428;-85
2022/08/20 16:50:51;;;;;;;10.07;5.83;;;27.60;38.00;;;;;;4995731;28;20423;-85
2022/08/20 16:53:20;;;;;;;18.57;6.13;;;27.50;38.60;;;;;;4997189;28;20444;-85
2022/08/20 16:55:45;;;;;;;9.07;5.50;;;27.50;40.00;;;;;;4979321;28;20514;-86
2022/08/20 16:58:11;;;;;;;9.07;5.57;;;27.40;39.20;;;;;;4978839;28;20474;-85
2022/08/20 17:00:38;;;;;;;9.03;5.17;;;27.40;39.50;;;;;;4995644;28;20473;-85
2022/08/20 17:03:05;;;;;;;8.60;5.47;;;27.40;40.30;;;;;;4961535;28;20222;-85
2022/08/20 17:05:42;;;;;;;18.20;6.13;;;27.50;40.90;;;;;;4973087;28;20938;-85
2022/08/20 17:08:34;;;;;;;13.67;5.80;;;27.50;41.00;;;;;;4995969;28;20426;-85
2022/08/20 17:11:09;;;;;;;9.00;5.37;;;27.40;40.80;;;;;;4995423;28;20478;-85
2022/08/20 17:13:37;;;;;;;11.20;5.50;;;27.40;40.90;;;;;;4985347;28;20482;-85
2022/08/20 17:16:13;;;;;;;7.30;5.23;;;27.40;41.70;;;;;;4991355;28;20433;-84
2022/08/20 17:18:42;;;;;;;12.30;5.10;;;27.30;42.40;;;;;;4994458;28;20457;-85
2022/08/20 17:21:23;;;;;;;7.10;5.80;;;27.30;42.40;;;;;;4976581;28;20557;-85
2022/08/20 17:23:57;;;;;;;9.07;5.23;;;27.30;42.50;;;;;;4978500;28;20443;-86
2022/08/20 17:26:47;;;;;;;11.00;5.27;;;27.30;43.20;;;;;;4995459;28;20446;-85
2022/08/20 17:29:20;;;;;;;13.30;6.23;;;27.30;43.70;;;;;;4985054;28;20439;-86
2022/08/20 17:31:53;;;;;;;7.30;6.20;;;27.20;44.10;;;;;;4976359;28;20431;-85
2022/08/20 17:34:22;;;;;;;7.33;5.37;;;27.10;43.70;;;;;;4968092;28;20917;-85
2022/08/20 17:36:56;;;;;;;12.73;6.17;;;26.80;42.90;;;;;;4990055;28;20480;-85
2022/08/20 17:39:23;;;;;;;7.80;5.17;;;26.70;43.50;;;;;;4995382;28;20510;-85
2022/08/20 17:41:53;;;;;;;9.70;5.60;;;26.50;43.30;;;;;;4981236;28;20477;-84
2022/08/20 17:44:32;;;;;;;7.20;4.30;;;26.30;43.70;;;;;;4980391;28;20454;-85
2022/08/20 17:47:01;;;;;;;9.50;4.70;;;26.20;44.90;;;;;;4981735;28;20430;-85
2022/08/20 17:49:50;;;;;;;8.47;5.10;;;26.10;45.10;;;;;;4996086;28;20422;-85
2022/08/20 17:52:24;;;;;;;10.90;4.93;;;26.00;45.10;;;;;;4996492;28;20461;-85
2022/08/20 17:54:49;;;;;;;8.13;3.90;;;26.00;45.80;;;;;;4981773;28;20436;-86
2022/08/20 17:57:25;;;;;;;10.00;4.40;;;25.90;46.10;;;;;;4982383;28;20499;-85
2022/08/20 17:59:57;;;;;;;14.67;4.80;;;25.80;46.10;;;;;;4979650;28;20246;-85
2022/08/20 18:02:23;;;;;;;8.90;4.60;;;25.70;45.30;;;;;;4978937;28;20465;-85
2022/08/20 18:04:50;;;;;;;6.60;4.37;;;25.70;45.90;;;;;;4985078;28;20794;-85
2022/08/20 18:07:24;;;;;;;12.17;4.77;;;25.70;46.20;;;;;;4981354;28;20198;-85
2022/08/20 18:10:08;;;;;;;7.67;4.30;;;25.60;46.70;;;;;;4981727;28;20930;-84
2022/08/20 18:12:55;;;;;;;10.20;4.83;;;25.60;47.00;;;;;;4988233;28;20532;-85
2022/08/20 18:15:30;;;;;;;7.93;3.60;;;25.50;47.70;;;;;;4987573;28;20433;-85
2022/08/20 18:18:14;;;;;;;8.43;4.97;;;25.40;47.90;;;;;;4987797;28;20814;-85
2022/08/20 18:21:17;;;;;;;7.23;4.37;;;25.40;48.80;;;;;;4985806;28;20464;-85
2022/08/20 18:23:56;;;;;;;6.80;4.23;;;25.30;48.80;;;;;;4995628;28;21024;-85
2022/08/20 18:26:28;;;;;;;8.03;4.60;;;25.20;49.80;;;;;;5004015;28;20464;-85
2022/08/20 18:29:02;;;;;;;8.73;5.03;;;25.10;49.90;;;;;;4985723;28;20428;-85
2022/08/20 18:31:39;;;;;;;7.13;4.13;;;25.00;51.10;;;;;;4983619;28;20932;-85
2022/08/20 18:34:34;;;;;;;7.57;3.90;;;24.90;50.90;;;;;;5000788;28;20436;-85
2022/08/20 18:37:02;;;;;;;7.00;4.37;;;24.80;51.50;;;;;;5000303;28;20495;-85
2022/08/20 18:39:42;;;;;;;5.93;4.60;;;24.70;51.90;;;;;;5000743;28;20825;-85
2022/08/20 18:42:23;;;;;;;9.43;4.80;;;24.50;51.70;;;;;;4999975;28;20881;-85
2022/08/20 18:44:51;;;;;;;8.67;4.13;;;24.40;52.40;;;;;;4981466;28;20801;-85
2022/08/20 18:47:41;;;;;;;9.40;4.83;;;24.30;52.60;;;;;;4983683;28;20807;-85
2022/08/20 18:50:09;;;;;;;8.00;3.57;;;24.20;53.90;;;;;;4991559;28;20420;-85
2022/08/20 18:52:38;;;;;;;7.43;3.90;;;24.10;54.20;;;;;;4963055;28;20549;-85
2022/08/20 18:55:11;;;;;;;9.70;4.43;;;24.00;54.40;;;;;;4987744;28;20493;-85
2022/08/20 18:57:54;;;;;;;7.70;3.67;;;23.90;55.50;;;;;;4972944;28;20431;-85
2022/08/20 19:00:22;;;;;;;7.30;3.70;;;23.90;56.00;;;;;;4982834;28;20975;-85
2022/08/20 19:03:01;;;;;;;9.00;3.70;;;23.80;56.90;;;;;;4985657;23;20558;-83
2022/08/20 19:05:33;;;;;;;7.63;3.90;;;23.70;57.60;;;;;;4975578;28;20779;-83
2022/08/20 19:08:01;;;;;;;6.27;3.63;;;23.70;57.40;;;;;;4992221;28;20414;-83
2022/08/20 19:10:41;;;;;;;13.73;5.40;;;23.60;58.30;;;;;;4972466;28;20439;-84
2022/08/20 19:13:44;;;;;;;6.43;4.20;;;23.50;59.60;;;;;;4994246;28;20451;-85
2022/08/20 19:16:33;;;;;;;10.60;4.90;;;23.40;61.10;;;;;;4942526;28;20501;-83
2022/08/20 19:18:58;;;;;;;8.83;3.83;;;23.20;63.70;;;;;;4972952;28;20455;-82
2022/08/20 19:21:30;;;;;;;8.63;4.87;;;23.20;64.20;;;;;;4989433;28;20464;-82
2022/08/20 19:23:59;;;;;;;9.80;4.00;;;23.10;66.80;;;;;;4988173;28;20233;-84
2022/08/20 19:26:30;;;;;;;9.77;4.60;;;23.00;69.90;;;;;;4969784;28;20433;-85
2022/08/20 19:29:06;;;;;;;7.30;4.77;;;23.00;71.80;;;;;;4980138;28;20415;-85
2022/08/20 19:31:33;;;;;;;8.23;4.90;;;22.90;74.80;;;;;;4973876;28;20794;-85
2022/08/20 19:34:22;;;;;;;8.13;4.87;;;22.80;77.50;;;;;;4971218;28;20566;-85
2022/08/20 19:37:02;;;;;;;6.30;4.90;;;22.70;82.10;;;;;;4960257;28;20459;-86
2022/08/20 23:05:57;;;;;;;11.53;7.10;;;19.70;1.00;;;;;;6286034;22;20807;-84
2022/08/20 23:08:23;;;;;;;15.73;7.80;;;19.70;1.00;;;;;;6256710;22;20382;-85
2022/08/20 23:10:48;;;;;;;10.10;7.07;;;19.60;1.00;;;;;;6257292;22;20160;-85
2022/08/20 23:13:14;;;;;;;8.00;7.17;;;19.60;1.00;;;;;;6256986;22;20205;-87
2022/08/20 23:15:40;;;;;;;14.00;7.70;;;19.50;1.00;;;;;;6257296;22;20186;-85
2022/08/20 23:18:11;;;;;;;10.37;8.63;;;19.50;1.00;;;;;;6256088;22;20163;-85
2022/08/20 23:20:37;;;;;;;14.33;8.60;;;19.40;1.00;;;;;;6256275;22;20376;-85
2022/08/20 23:23:04;;;;;;;10.03;8.27;;;19.30;1.00;;;;;;6256906;22;20398;-85
2022/08/20 23:25:30;;;;;;;16.83;8.23;;;19.30;1.00;;;;;;6256274;22;20393;-86
2022/08/20 23:27:56;;;;;;;10.97;8.20;;;19.30;1.00;;;;;;6256405;22;20387;-85
2022/08/20 23:30:23;;;;;;;11.13;8.37;;;19.20;27.70;;;;;;6256727;22;20427;-87
2022/08/20 23:32:49;;;;;;;12.17;8.87;;;19.20;64.30;;;;;;6256426;22;20405;-85
2022/08/20 23:35:15;;;;;;;12.60;9.30;;;19.10;96.80;;;;;;6256870;22;20426;-85
2022/08/20 23:37:47;;;;;;;16.87;8.50;;;19.10;99.90;;;;;;6255888;22;20244;-85
2022/08/20 23:40:21;;;;;;;13.40;9.03;;;19.00;99.90;;;;;;6256763;22;20146;-85
2022/08/20 23:42:47;;;;;;;12.60;9.10;;;18.90;99.90;;;;;;6256445;22;20433;-85
2022/08/20 23:45:14;;;;;;;11.27;9.53;;;18.90;99.90;;;;;;6256188;22;20396;-85
2022/08/20 23:47:42;;;;;;;12.00;9.93;;;18.80;99.90;;;;;;6276758;22;20502;-86
2022/08/20 23:50:16;;;;;;;13.87;9.90;;;18.80;99.90;;;;;;6249926;22;20432;-85
2022/08/20 23:52:42;;;;;;;23.03;9.93;;;18.80;99.90;;;;;;6249380;22;20404;-85
2022/08/20 23:55:08;;;;;;;11.53;9.23;;;18.70;99.90;;;;;;6249774;22;20422;-85
2022/08/20 23:57:34;;;;;;;19.37;9.50;;;18.70;1.00;;;;;;6248878;22;20470;-85
